Usace Nysb-3 — AESN — position and weather

sailwx.info

Track history (hours):
 
Tides and Currents Weather Stations Pressure Air Temp Water Temp Dewpoint Dewpoint Depression Visibility Wind Speed Wind Dir Waves Ship Positions

Usace Nysb-3

Last reported at 2017-Nov-30 20:59 UTC. Time now 2017-Dec-12 23:54 UTC.
Position N 40°41' W 074°04'.
Warning: this ship's position is 12 days out of date.

Length 8 m.

Type: Dredging. MMSI: 368926078.

Date/timePositionNaut miles runAvg speedWind from/ knotsBaromVisibWave heightAir tempDewpointWater temp
2017-Nov-30 20:59N 40°41' W 074°04'4 1.6
2017-Nov-30 18:25N 40°44' W 074°07'4 9.0
2017-Nov-30 17:59N 40°41' W 074°08'6 2.7
2017-Nov-30 15:51N 40°37' W 074°03'617.1
2017-Nov-30 15:30N 40°43' W 074°02'0 0.0
2017-Nov-30 14:59N 40°43' W 074°02'2 4.5
2017-Nov-30 14:30N 40°41' W 074°04'0 0.0
2017-Nov-29 21:14N 40°41' W 074°04'314.4
2017-Nov-29 21:00N 40°40' W 074°08'5 1.0
2017-Nov-29 16:17N 40°44' W 074°07'1 3.1
2017-Nov-29 15:56N 40°44' W 074°06'0 0.4
2017-Nov-29 15:30N 40°44' W 074°06'0 0.5
2017-Nov-29 15:00N 40°44' W 074°06'4 0.2
2017-Nov-28 20:35N 40°40' W 074°04'5 5.0
2017-Nov-28 19:37N 40°44' W 074°07'0 1.0
2017-Nov-28 19:29N 40°44' W 074°07'1 2.4
2017-Nov-28 18:58N 40°43' W 074°07'0 0.1
2017-Nov-28 16:59N 40°43' W 074°07'4 6.3
2017-Nov-28 16:20N 40°40' W 074°04'3 8.0
2017-Nov-28 15:59N 40°43' W 074°02'  
Track history (hours):
 
Tides and Currents Weather Stations Pressure Air Temp Water Temp Dewpoint Dewpoint Depression Visibility Wind Speed Wind Dir Waves Ship Positions

Usace Nysb-3

Last reported at 2017-Nov-30 20:59 UTC. Time now 2017-Dec-12 23:54 UTC.
Position N 40°41' W 074°04'.
Warning: this ship's position is 12 days out of date.

Length 8 m.

Type: Dredging. MMSI: 368926078.

Date/timePositionNaut miles runAvg speedWind from/ knotsBaromVisibWave heightAir tempDewpointWater temp
2017-Nov-30 20:59N 40°41' W 074°04'4 1.6
2017-Nov-30 18:25N 40°44' W 074°07'4 9.0
2017-Nov-30 17:59N 40°41' W 074°08'6 2.7
2017-Nov-30 15:51N 40°37' W 074°03'617.1
2017-Nov-30 15:30N 40°43' W 074°02'0 0.0
2017-Nov-30 14:59N 40°43' W 074°02'2 4.5
2017-Nov-30 14:30N 40°41' W 074°04'0 0.0
2017-Nov-29 21:14N 40°41' W 074°04'314.4
2017-Nov-29 21:00N 40°40' W 074°08'5 1.0
2017-Nov-29 16:17N 40°44' W 074°07'1 3.1
2017-Nov-29 15:56N 40°44' W 074°06'0 0.4
2017-Nov-29 15:30N 40°44' W 074°06'0 0.5
2017-Nov-29 15:00N 40°44' W 074°06'4 0.2
2017-Nov-28 20:35N 40°40' W 074°04'5 5.0
2017-Nov-28 19:37N 40°44' W 074°07'0 1.0
2017-Nov-28 19:29N 40°44' W 074°07'1 2.4
2017-Nov-28 18:58N 40°43' W 074°07'0 0.1
2017-Nov-28 16:59N 40°43' W 074°07'4 6.3
2017-Nov-28 16:20N 40°40' W 074°04'3 8.0
2017-Nov-28 15:59N 40°43' W 074°02'  

Dump ship's entire track history